< < Back
Terminal Aerodrome Forecast


Current Version              Previous Versions:   1  2  3  4  5  6  7  8  9  

Terminal Aerodrome Forecast

757
FTUS42 KGSP 041928 AAA
TAFAVL
TAF AMD
KAVL 041928Z 0419/0518 32005KT P6SM SCT050
      TEMPO 0419/0423 4SM TSRA BKN040CB
     FM050300 VRB03KT P6SM SCT060
     FM050700 00000KT 5SM BR SCT070
     FM051100 00000KT 4SM BR BKN030
     FM051400 07004KT 6SM HZ VCSH BKN035=



Latest METAR

461
SAUS70 KWBC 050300 RRH
MTRAVL
METAR KAVL 050254Z VRB05KT 10SM SCT036 BKN060 22/17 A3017 RMK AO2 LTG
DSNT E AND SE SLP188 T02170167 51021


USA.gov is the U.S. government's official web portal to all federal, state and local government web resources and services.